sensor_id;sensor_type;location;lat;lon;timestamp;P1;durP1;ratioP1;P2;durP2;ratioP2
13463;SDS011;6804;48.774;9.174;2023-04-19T00:00:38;8.93;;;7.37;;
13463;SDS011;6804;48.774;9.174;2023-04-19T00:03:05;8.63;;;7.03;;
13463;SDS011;6804;48.774;9.174;2023-04-19T00:05:36;8.30;;;7.40;;
13463;SDS011;6804;48.774;9.174;2023-04-19T00:08:03;7.90;;;6.90;;
13463;SDS011;6804;48.774;9.174;2023-04-19T00:10:31;8.50;;;7.07;;
13463;SDS011;6804;48.774;9.174;2023-04-19T00:12:59;7.77;;;6.70;;
13463;SDS011;6804;48.774;9.174;2023-04-19T00:15:37;9.17;;;7.00;;
13463;SDS011;6804;48.774;9.174;2023-04-19T00:18:07;9.37;;;6.80;;
13463;SDS011;6804;48.774;9.174;2023-04-19T00:20:34;10.47;;;7.97;;
13463;SDS011;6804;48.774;9.174;2023-04-19T00:23:01;9.93;;;7.57;;
13463;SDS011;6804;48.774;9.174;2023-04-19T00:25:28;8.60;;;7.70;;
13463;SDS011;6804;48.774;9.174;2023-04-19T00:27:57;9.27;;;7.77;;
13463;SDS011;6804;48.774;9.174;2023-04-19T00:30:24;9.73;;;8.30;;
13463;SDS011;6804;48.774;9.174;2023-04-19T00:32:55;8.97;;;7.57;;
13463;SDS011;6804;48.774;9.174;2023-04-19T00:35:22;9.20;;;8.27;;
13463;SDS011;6804;48.774;9.174;2023-04-19T00:37:52;8.27;;;7.37;;
13463;SDS011;6804;48.774;9.174;2023-04-19T00:40:22;8.37;;;7.30;;
13463;SDS011;6804;48.774;9.174;2023-04-19T00:42:52;10.53;;;7.37;;
13463;SDS011;6804;48.774;9.174;2023-04-19T00:45:21;9.03;;;8.07;;
13463;SDS011;6804;48.774;9.174;2023-04-19T00:47:49;11.37;;;8.30;;
13463;SDS011;6804;48.774;9.174;2023-04-19T00:50:18;10.40;;;8.73;;
13463;SDS011;6804;48.774;9.174;2023-04-19T00:52:45;10.03;;;8.13;;
13463;SDS011;6804;48.774;9.174;2023-04-19T00:55:16;11.13;;;8.60;;
13463;SDS011;6804;48.774;9.174;2023-04-19T00:57:43;9.20;;;8.10;;
13463;SDS011;6804;48.774;9.174;2023-04-19T01:00:16;9.40;;;8.10;;
13463;SDS011;6804;48.774;9.174;2023-04-19T01:02:44;9.17;;;8.10;;
13463;SDS011;6804;48.774;9.174;2023-04-19T01:05:11;10.97;;;7.63;;
13463;SDS011;6804;48.774;9.174;2023-04-19T01:07:43;9.23;;;7.90;;
13463;SDS011;6804;48.774;9.174;2023-04-19T01:10:10;10.63;;;8.37;;
13463;SDS011;6804;48.774;9.174;2023-04-19T01:12:37;10.17;;;9.17;;
13463;SDS011;6804;48.774;9.174;2023-04-19T01:15:05;9.33;;;7.90;;
13463;SDS011;6804;48.774;9.174;2023-04-19T01:17:33;9.30;;;8.30;;
13463;SDS011;6804;48.774;9.174;2023-04-19T01:20:01;9.27;;;8.03;;
13463;SDS011;6804;48.774;9.174;2023-04-19T01:22:35;10.43;;;8.57;;
13463;SDS011;6804;48.774;9.174;2023-04-19T01:25:05;10.83;;;8.83;;
13463;SDS011;6804;48.774;9.174;2023-04-19T01:27:38;10.07;;;8.70;;
13463;SDS011;6804;48.774;9.174;2023-04-19T01:30:05;9.53;;;8.50;;
13463;SDS011;6804;48.774;9.174;2023-04-19T01:32:41;9.47;;;7.80;;
13463;SDS011;6804;48.774;9.174;2023-04-19T01:35:08;10.27;;;9.07;;
13463;SDS011;6804;48.774;9.174;2023-04-19T01:37:38;10.73;;;8.97;;
13463;SDS011;6804;48.774;9.174;2023-04-19T01:40:05;10.10;;;8.90;;
13463;SDS011;6804;48.774;9.174;2023-04-19T01:42:36;10.87;;;8.27;;
13463;SDS011;6804;48.774;9.174;2023-04-19T01:45:03;11.47;;;9.63;;
13463;SDS011;6804;48.774;9.174;2023-04-19T01:47:34;10.93;;;9.67;;
13463;SDS011;6804;48.774;9.174;2023-04-19T01:50:01;11.20;;;9.33;;
13463;SDS011;6804;48.774;9.174;2023-04-19T01:52:28;11.87;;;9.20;;
13463;SDS011;6804;48.774;9.174;2023-04-19T01:54:57;13.23;;;8.97;;
13463;SDS011;6804;48.774;9.174;2023-04-19T01:57:27;11.70;;;9.47;;
13463;SDS011;6804;48.774;9.174;2023-04-19T01:59:54;12.20;;;9.47;;
13463;SDS011;6804;48.774;9.174;2023-04-19T02:02:25;12.27;;;9.17;;
13463;SDS011;6804;48.774;9.174;2023-04-19T02:04:52;11.93;;;9.13;;
13463;SDS011;6804;48.774;9.174;2023-04-19T02:07:22;11.73;;;9.73;;
13463;SDS011;6804;48.774;9.174;2023-04-19T02:09:50;11.80;;;9.23;;
13463;SDS011;6804;48.774;9.174;2023-04-19T02:12:19;11.30;;;8.70;;
13463;SDS011;6804;48.774;9.174;2023-04-19T02:14:46;11.93;;;8.90;;
13463;SDS011;6804;48.774;9.174;2023-04-19T02:17:13;11.80;;;9.13;;
13463;SDS011;6804;48.774;9.174;2023-04-19T02:19:42;10.80;;;9.03;;
13463;SDS011;6804;48.774;9.174;2023-04-19T02:22:09;10.90;;;9.80;;
13463;SDS011;6804;48.774;9.174;2023-04-19T02:24:36;13.20;;;9.63;;
13463;SDS011;6804;48.774;9.174;2023-04-19T02:27:03;11.13;;;8.97;;
13463;SDS011;6804;48.774;9.174;2023-04-19T02:29:34;11.07;;;9.10;;
13463;SDS011;6804;48.774;9.174;2023-04-19T02:32:04;11.07;;;8.80;;
13463;SDS011;6804;48.774;9.174;2023-04-19T02:34:31;12.93;;;9.77;;
13463;SDS011;6804;48.774;9.174;2023-04-19T02:36:59;11.83;;;9.87;;
13463;SDS011;6804;48.774;9.174;2023-04-19T02:39:27;9.87;;;8.63;;
13463;SDS011;6804;48.774;9.174;2023-04-19T02:41:57;11.63;;;9.70;;
13463;SDS011;6804;48.774;9.174;2023-04-19T02:44:25;12.57;;;9.80;;
13463;SDS011;6804;48.774;9.174;2023-04-19T02:46:54;11.20;;;8.90;;
13463;SDS011;6804;48.774;9.174;2023-04-19T02:49:23;13.57;;;10.60;;
13463;SDS011;6804;48.774;9.174;2023-04-19T02:51:50;12.37;;;9.20;;
13463;SDS011;6804;48.774;9.174;2023-04-19T02:54:18;11.27;;;10.07;;
13463;SDS011;6804;48.774;9.174;2023-04-19T02:56:45;11.77;;;10.43;;
13463;SDS011;6804;48.774;9.174;2023-04-19T02:59:12;13.80;;;10.60;;
13463;SDS011;6804;48.774;9.174;2023-04-19T03:01:39;12.23;;;9.97;;
13463;SDS011;6804;48.774;9.174;2023-04-19T03:04:07;10.67;;;9.03;;
13463;SDS011;6804;48.774;9.174;2023-04-19T03:06:35;11.43;;;9.03;;
13463;SDS011;6804;48.774;9.174;2023-04-19T03:09:02;15.07;;;10.10;;
13463;SDS011;6804;48.774;9.174;2023-04-19T03:11:29;10.97;;;9.83;;
13463;SDS011;6804;48.774;9.174;2023-04-19T03:13:56;11.03;;;9.77;;
13463;SDS011;6804;48.774;9.174;2023-04-19T03:16:26;11.33;;;9.57;;
13463;SDS011;6804;48.774;9.174;2023-04-19T03:18:54;11.17;;;9.33;;
13463;SDS011;6804;48.774;9.174;2023-04-19T03:21:23;12.23;;;10.17;;
13463;SDS011;6804;48.774;9.174;2023-04-19T03:23:51;11.40;;;10.10;;
13463;SDS011;6804;48.774;9.174;2023-04-19T03:26:18;13.73;;;10.03;;
13463;SDS011;6804;48.774;9.174;2023-04-19T03:28:49;12.57;;;9.37;;
13463;SDS011;6804;48.774;9.174;2023-04-19T03:31:18;12.23;;;10.37;;
13463;SDS011;6804;48.774;9.174;2023-04-19T03:33:46;12.87;;;10.00;;
13463;SDS011;6804;48.774;9.174;2023-04-19T03:36:13;10.10;;;8.87;;
13463;SDS011;6804;48.774;9.174;2023-04-19T03:38:41;10.83;;;9.40;;
13463;SDS011;6804;48.774;9.174;2023-04-19T03:41:16;11.07;;;9.87;;
13463;SDS011;6804;48.774;9.174;2023-04-19T03:43:48;11.87;;;10.43;;
13463;SDS011;6804;48.774;9.174;2023-04-19T03:46:18;12.13;;;10.50;;
13463;SDS011;6804;48.774;9.174;2023-04-19T03:48:46;17.73;;;10.17;;
13463;SDS011;6804;48.774;9.174;2023-04-19T03:51:18;11.43;;;9.77;;
13463;SDS011;6804;48.774;9.174;2023-04-19T03:53:49;14.37;;;10.23;;
13463;SDS011;6804;48.774;9.174;2023-04-19T03:56:16;11.80;;;10.17;;
13463;SDS011;6804;48.774;9.174;2023-04-19T03:58:46;12.57;;;10.53;;
13463;SDS011;6804;48.774;9.174;2023-04-19T04:01:17;13.27;;;10.00;;
13463;SDS011;6804;48.774;9.174;2023-04-19T04:03:44;11.93;;;9.90;;
13463;SDS011;6804;48.774;9.174;2023-04-19T04:06:11;14.90;;;11.17;;
13463;SDS011;6804;48.774;9.174;2023-04-19T04:08:39;12.47;;;10.10;;
13463;SDS011;6804;48.774;9.174;2023-04-19T04:11:07;13.67;;;10.93;;
13463;SDS011;6804;48.774;9.174;2023-04-19T04:13:44;13.63;;;10.37;;
13463;SDS011;6804;48.774;9.174;2023-04-19T04:16:14;14.33;;;10.63;;
13463;SDS011;6804;48.774;9.174;2023-04-19T04:18:44;14.07;;;11.20;;
13463;SDS011;6804;48.774;9.174;2023-04-19T04:21:11;13.77;;;10.70;;
13463;SDS011;6804;48.774;9.174;2023-04-19T04:23:41;13.83;;;10.63;;
13463;SDS011;6804;48.774;9.174;2023-04-19T04:26:14;14.20;;;11.03;;
13463;SDS011;6804;48.774;9.174;2023-04-19T04:28:41;12.37;;;10.20;;
13463;SDS011;6804;48.774;9.174;2023-04-19T04:31:08;13.43;;;9.97;;
13463;SDS011;6804;48.774;9.174;2023-04-19T04:33:37;13.97;;;11.20;;
13463;SDS011;6804;48.774;9.174;2023-04-19T04:36:04;13.30;;;10.93;;
13463;SDS011;6804;48.774;9.174;2023-04-19T04:38:31;15.23;;;11.13;;
13463;SDS011;6804;48.774;9.174;2023-04-19T04:41:05;12.43;;;10.63;;
13463;SDS011;6804;48.774;9.174;2023-04-19T04:43:34;13.43;;;11.23;;
13463;SDS011;6804;48.774;9.174;2023-04-19T04:46:02;12.17;;;10.70;;
13463;SDS011;6804;48.774;9.174;2023-04-19T04:48:30;15.00;;;11.67;;
13463;SDS011;6804;48.774;9.174;2023-04-19T04:50:57;11.90;;;10.27;;
13463;SDS011;6804;48.774;9.174;2023-04-19T04:53:27;14.20;;;11.37;;
13463;SDS011;6804;48.774;9.174;2023-04-19T04:55:54;15.80;;;11.40;;
13463;SDS011;6804;48.774;9.174;2023-04-19T04:58:24;13.47;;;10.47;;
13463;SDS011;6804;48.774;9.174;2023-04-19T05:00:53;12.37;;;10.80;;
13463;SDS011;6804;48.774;9.174;2023-04-19T05:03:20;12.83;;;9.87;;
13463;SDS011;6804;48.774;9.174;2023-04-19T05:05:48;13.10;;;11.10;;
13463;SDS011;6804;48.774;9.174;2023-04-19T05:08:17;14.50;;;11.17;;
13463;SDS011;6804;48.774;9.174;2023-04-19T05:10:44;14.13;;;10.20;;
13463;SDS011;6804;48.774;9.174;2023-04-19T05:13:12;12.57;;;10.27;;
13463;SDS011;6804;48.774;9.174;2023-04-19T05:15:44;12.33;;;10.73;;
13463;SDS011;6804;48.774;9.174;2023-04-19T05:18:13;11.83;;;10.63;;
13463;SDS011;6804;48.774;9.174;2023-04-19T05:20:40;11.93;;;9.83;;
13463;SDS011;6804;48.774;9.174;2023-04-19T05:23:07;13.20;;;10.23;;
13463;SDS011;6804;48.774;9.174;2023-04-19T05:25:35;13.17;;;11.13;;
13463;SDS011;6804;48.774;9.174;2023-04-19T05:28:03;12.47;;;10.77;;
13463;SDS011;6804;48.774;9.174;2023-04-19T05:30:33;11.93;;;10.27;;
13463;SDS011;6804;48.774;9.174;2023-04-19T05:33:03;12.60;;;11.30;;
13463;SDS011;6804;48.774;9.174;2023-04-19T05:35:32;12.23;;;10.47;;
13463;SDS011;6804;48.774;9.174;2023-04-19T05:38:03;12.80;;;11.33;;
13463;SDS011;6804;48.774;9.174;2023-04-19T05:40:35;12.70;;;10.67;;
13463;SDS011;6804;48.774;9.174;2023-04-19T05:43:03;12.70;;;11.03;;
13463;SDS011;6804;48.774;9.174;2023-04-19T05:45:34;11.73;;;10.47;;
13463;SDS011;6804;48.774;9.174;2023-04-19T05:48:01;13.10;;;10.87;;
13463;SDS011;6804;48.774;9.174;2023-04-19T05:50:32;16.23;;;11.03;;
13463;SDS011;6804;48.774;9.174;2023-04-19T05:53:03;13.63;;;11.33;;
13463;SDS011;6804;48.774;9.174;2023-04-19T05:55:35;16.57;;;10.93;;
13463;SDS011;6804;48.774;9.174;2023-04-19T05:58:05;15.00;;;11.10;;
13463;SDS011;6804;48.774;9.174;2023-04-19T06:00:32;20.43;;;12.07;;
13463;SDS011;6804;48.774;9.174;2023-04-19T06:03:03;12.53;;;10.13;;
13463;SDS011;6804;48.774;9.174;2023-04-19T06:05:31;14.67;;;10.73;;
13463;SDS011;6804;48.774;9.174;2023-04-19T06:08:02;13.87;;;11.20;;
13463;SDS011;6804;48.774;9.174;2023-04-19T06:10:31;12.63;;;10.40;;
13463;SDS011;6804;48.774;9.174;2023-04-19T06:12:59;12.70;;;9.83;;
13463;SDS011;6804;48.774;9.174;2023-04-19T06:15:26;15.40;;;11.07;;
13463;SDS011;6804;48.774;9.174;2023-04-19T06:17:55;12.80;;;9.80;;
13463;SDS011;6804;48.774;9.174;2023-04-19T06:20:22;10.40;;;8.93;;
13463;SDS011;6804;48.774;9.174;2023-04-19T06:22:51;12.20;;;10.90;;
13463;SDS011;6804;48.774;9.174;2023-04-19T06:25:23;10.87;;;9.70;;
13463;SDS011;6804;48.774;9.174;2023-04-19T06:27:50;12.27;;;9.70;;
13463;SDS011;6804;48.774;9.174;2023-04-19T06:30:25;13.07;;;10.57;;
13463;SDS011;6804;48.774;9.174;2023-04-19T06:32:55;11.57;;;10.37;;
13463;SDS011;6804;48.774;9.174;2023-04-19T06:35:25;12.83;;;10.43;;
13463;SDS011;6804;48.774;9.174;2023-04-19T06:37:57;12.00;;;9.70;;
13463;SDS011;6804;48.774;9.174;2023-04-19T06:40:25;10.60;;;9.43;;
13463;SDS011;6804;48.774;9.174;2023-04-19T06:42:53;11.73;;;10.43;;
13463;SDS011;6804;48.774;9.174;2023-04-19T06:45:23;12.87;;;10.17;;
13463;SDS011;6804;48.774;9.174;2023-04-19T06:47:51;13.03;;;10.27;;
13463;SDS011;6804;48.774;9.174;2023-04-19T06:50:21;11.70;;;10.47;;
13463;SDS011;6804;48.774;9.174;2023-04-19T06:52:49;13.03;;;9.73;;
13463;SDS011;6804;48.774;9.174;2023-04-19T06:55:17;11.70;;;9.27;;
13463;SDS011;6804;48.774;9.174;2023-04-19T06:57:45;12.73;;;9.70;;
13463;SDS011;6804;48.774;9.174;2023-04-19T07:00:16;13.37;;;10.23;;
13463;SDS011;6804;48.774;9.174;2023-04-19T07:02:44;13.80;;;10.03;;
13463;SDS011;6804;48.774;9.174;2023-04-19T07:05:11;13.33;;;10.13;;
13463;SDS011;6804;48.774;9.174;2023-04-19T07:07:39;12.97;;;10.57;;
13463;SDS011;6804;48.774;9.174;2023-04-19T07:10:07;14.53;;;10.20;;
13463;SDS011;6804;48.774;9.174;2023-04-19T07:12:38;14.03;;;10.60;;
13463;SDS011;6804;48.774;9.174;2023-04-19T07:15:08;11.87;;;10.47;;
13463;SDS011;6804;48.774;9.174;2023-04-19T07:17:37;12.87;;;10.40;;
13463;SDS011;6804;48.774;9.174;2023-04-19T07:20:05;11.67;;;9.77;;
13463;SDS011;6804;48.774;9.174;2023-04-19T07:22:38;13.73;;;9.83;;
13463;SDS011;6804;48.774;9.174;2023-04-19T07:25:09;15.07;;;10.33;;
13463;SDS011;6804;48.774;9.174;2023-04-19T07:27:39;14.40;;;10.90;;
13463;SDS011;6804;48.774;9.174;2023-04-19T07:30:07;12.13;;;10.77;;
13463;SDS011;6804;48.774;9.174;2023-04-19T07:32:37;10.80;;;9.37;;
13463;SDS011;6804;48.774;9.174;2023-04-19T07:35:08;16.93;;;10.60;;
13463;SDS011;6804;48.774;9.174;2023-04-19T07:37:36;12.40;;;9.90;;
13463;SDS011;6804;48.774;9.174;2023-04-19T07:40:04;15.37;;;9.80;;
13463;SDS011;6804;48.774;9.174;2023-04-19T07:42:35;12.60;;;10.07;;
13463;SDS011;6804;48.774;9.174;2023-04-19T07:45:08;15.93;;;11.60;;
13463;SDS011;6804;48.774;9.174;2023-04-19T07:47:39;13.37;;;10.23;;
13463;SDS011;6804;48.774;9.174;2023-04-19T07:50:09;14.80;;;9.93;;
13463;SDS011;6804;48.774;9.174;2023-04-19T07:52:37;14.13;;;10.03;;
13463;SDS011;6804;48.774;9.174;2023-04-19T07:55:09;16.07;;;10.43;;
13463;SDS011;6804;48.774;9.174;2023-04-19T07:57:39;14.93;;;10.00;;
13463;SDS011;6804;48.774;9.174;2023-04-19T08:00:12;18.53;;;9.97;;
13463;SDS011;6804;48.774;9.174;2023-04-19T08:02:41;11.30;;;9.60;;
13463;SDS011;6804;48.774;9.174;2023-04-19T08:05:13;11.37;;;9.23;;
13463;SDS011;6804;48.774;9.174;2023-04-19T08:07:42;12.30;;;9.17;;
13463;SDS011;6804;48.774;9.174;2023-04-19T08:10:19;13.83;;;9.83;;
13463;SDS011;6804;48.774;9.174;2023-04-19T08:12:47;12.90;;;9.43;;
13463;SDS011;6804;48.774;9.174;2023-04-19T08:15:20;10.13;;;9.03;;
13463;SDS011;6804;48.774;9.174;2023-04-19T08:17:48;11.43;;;8.83;;
13463;SDS011;6804;48.774;9.174;2023-04-19T08:20:21;11.87;;;9.20;;
13463;SDS011;6804;48.774;9.174;2023-04-19T08:22:49;9.60;;;8.60;;
13463;SDS011;6804;48.774;9.174;2023-04-19T08:25:17;10.60;;;9.17;;
13463;SDS011;6804;48.774;9.174;2023-04-19T08:27:51;9.40;;;8.40;;
13463;SDS011;6804;48.774;9.174;2023-04-19T08:30:20;9.17;;;8.23;;
13463;SDS011;6804;48.774;9.174;2023-04-19T08:32:48;10.10;;;7.60;;
13463;SDS011;6804;48.774;9.174;2023-04-19T08:35:16;9.57;;;7.93;;
13463;SDS011;6804;48.774;9.174;2023-04-19T08:37:47;10.93;;;7.93;;
13463;SDS011;6804;48.774;9.174;2023-04-19T08:40:17;8.87;;;7.80;;
13463;SDS011;6804;48.774;9.174;2023-04-19T08:42:48;9.37;;;6.57;;
13463;SDS011;6804;48.774;9.174;2023-04-19T08:45:18;9.90;;;7.47;;
13463;SDS011;6804;48.774;9.174;2023-04-19T08:48:00;9.37;;;7.40;;
13463;SDS011;6804;48.774;9.174;2023-04-19T08:50:31;8.40;;;7.33;;
13463;SDS011;6804;48.774;9.174;2023-04-19T08:53:00;13.33;;;7.97;;
13463;SDS011;6804;48.774;9.174;2023-04-19T08:55:28;10.30;;;7.17;;
13463;SDS011;6804;48.774;9.174;2023-04-19T08:57:57;12.10;;;7.10;;
13463;SDS011;6804;48.774;9.174;2023-04-19T09:00:28;9.90;;;6.97;;
13463;SDS011;6804;48.774;9.174;2023-04-19T09:02:58;8.73;;;7.67;;
13463;SDS011;6804;48.774;9.174;2023-04-19T09:05:26;7.80;;;6.83;;
13463;SDS011;6804;48.774;9.174;2023-04-19T09:08:04;7.00;;;6.30;;
13463;SDS011;6804;48.774;9.174;2023-04-19T09:10:52;9.00;;;7.30;;
13463;SDS011;6804;48.774;9.174;2023-04-19T09:13:20;8.07;;;7.07;;
13463;SDS011;6804;48.774;9.174;2023-04-19T09:15:50;6.93;;;6.23;;
13463;SDS011;6804;48.774;9.174;2023-04-19T09:18:18;8.37;;;7.00;;
13463;SDS011;6804;48.774;9.174;2023-04-19T09:20:47;8.53;;;7.40;;
13463;SDS011;6804;48.774;9.174;2023-04-19T09:23:22;9.90;;;8.07;;
13463;SDS011;6804;48.774;9.174;2023-04-19T09:25:51;8.10;;;7.30;;
13463;SDS011;6804;48.774;9.174;2023-04-19T09:28:23;8.00;;;7.00;;
13463;SDS011;6804;48.774;9.174;2023-04-19T09:30:53;9.93;;;7.40;;
13463;SDS011;6804;48.774;9.174;2023-04-19T09:33:30;9.63;;;7.87;;
13463;SDS011;6804;48.774;9.174;2023-04-19T09:35:59;11.70;;;7.83;;
13463;SDS011;6804;48.774;9.174;2023-04-19T09:38:45;9.83;;;8.77;;
13463;SDS011;6804;48.774;9.174;2023-04-19T09:41:15;10.83;;;8.13;;
13463;SDS011;6804;48.774;9.174;2023-04-19T09:43:43;8.43;;;7.50;;
13463;SDS011;6804;48.774;9.174;2023-04-19T09:49:17;10.10;;;7.90;;
13463;SDS011;6804;48.774;9.174;2023-04-19T09:51:48;11.53;;;7.87;;
13463;SDS011;6804;48.774;9.174;2023-04-19T09:54:21;10.73;;;8.00;;
13463;SDS011;6804;48.774;9.174;2023-04-19T09:56:51;9.87;;;8.47;;
13463;SDS011;6804;48.774;9.174;2023-04-19T09:59:19;9.03;;;7.30;;
13463;SDS011;6804;48.774;9.174;2023-04-19T10:01:51;9.63;;;7.83;;
13463;SDS011;6804;48.774;9.174;2023-04-19T10:04:22;9.07;;;7.10;;
13463;SDS011;6804;48.774;9.174;2023-04-19T10:06:52;11.60;;;8.13;;
13463;SDS011;6804;48.774;9.174;2023-04-19T10:09:21;9.57;;;7.30;;
13463;SDS011;6804;48.774;9.174;2023-04-19T10:11:50;11.07;;;8.17;;
13463;SDS011;6804;48.774;9.174;2023-04-19T10:14:23;11.43;;;7.30;;
13463;SDS011;6804;48.774;9.174;2023-04-19T10:16:53;10.23;;;7.87;;
13463;SDS011;6804;48.774;9.174;2023-04-19T10:19:22;9.83;;;8.83;;
13463;SDS011;6804;48.774;9.174;2023-04-19T10:21:51;9.23;;;7.10;;
13463;SDS011;6804;48.774;9.174;2023-04-19T10:24:21;10.27;;;8.00;;
13463;SDS011;6804;48.774;9.174;2023-04-19T10:27:04;8.93;;;7.80;;
13463;SDS011;6804;48.774;9.174;2023-04-19T10:32:27;7.97;;;7.17;;
13463;SDS011;6804;48.774;9.174;2023-04-19T10:35:08;8.20;;;7.40;;
13463;SDS011;6804;48.774;9.174;2023-04-19T10:38:02;12.23;;;7.83;;
13463;SDS011;6804;48.774;9.174;2023-04-19T10:43:25;9.37;;;7.67;;
13463;SDS011;6804;48.774;9.174;2023-04-19T10:45:54;9.37;;;7.33;;
13463;SDS011;6804;48.774;9.174;2023-04-19T10:48:34;7.57;;;6.87;;
13463;SDS011;6804;48.774;9.174;2023-04-19T10:51:04;8.67;;;7.43;;
13463;SDS011;6804;48.774;9.174;2023-04-19T10:53:50;8.30;;;7.47;;
13463;SDS011;6804;48.774;9.174;2023-04-19T10:56:20;9.13;;;8.10;;
13463;SDS011;6804;48.774;9.174;2023-04-19T10:59:14;8.30;;;7.30;;
13463;SDS011;6804;48.774;9.174;2023-04-19T11:01:49;11.17;;;7.73;;
13463;SDS011;6804;48.774;9.174;2023-04-19T11:04:23;9.13;;;7.90;;
13463;SDS011;6804;48.774;9.174;2023-04-19T11:07:17;10.23;;;7.40;;
13463;SDS011;6804;48.774;9.174;2023-04-19T11:09:48;8.67;;;7.60;;
13463;SDS011;6804;48.774;9.174;2023-04-19T11:12:17;10.30;;;7.30;;
13463;SDS011;6804;48.774;9.174;2023-04-19T11:14:50;7.87;;;7.07;;
13463;SDS011;6804;48.774;9.174;2023-04-19T11:17:25;9.07;;;7.20;;
13463;SDS011;6804;48.774;9.174;2023-04-19T11:19:57;9.10;;;7.47;;
13463;SDS011;6804;48.774;9.174;2023-04-19T11:22:29;14.27;;;10.00;;
13463;SDS011;6804;48.774;9.174;2023-04-19T11:25:07;10.43;;;8.27;;
13463;SDS011;6804;48.774;9.174;2023-04-19T11:27:41;8.13;;;7.33;;
13463;SDS011;6804;48.774;9.174;2023-04-19T11:30:13;9.37;;;7.70;;
13463;SDS011;6804;48.774;9.174;2023-04-19T11:32:44;10.57;;;7.67;;
13463;SDS011;6804;48.774;9.174;2023-04-19T11:35:16;9.40;;;7.60;;
13463;SDS011;6804;48.774;9.174;2023-04-19T11:37:47;9.13;;;7.77;;
13463;SDS011;6804;48.774;9.174;2023-04-19T11:40:16;12.00;;;8.40;;
13463;SDS011;6804;48.774;9.174;2023-04-19T11:42:48;9.07;;;7.43;;
13463;SDS011;6804;48.774;9.174;2023-04-19T11:45:24;10.43;;;8.37;;
13463;SDS011;6804;48.774;9.174;2023-04-19T11:47:53;8.90;;;8.00;;
13463;SDS011;6804;48.774;9.174;2023-04-19T11:50:37;10.27;;;8.27;;
13463;SDS011;6804;48.774;9.174;2023-04-19T11:53:10;9.07;;;8.10;;
13463;SDS011;6804;48.774;9.174;2023-04-19T11:55:44;9.40;;;8.43;;
13463;SDS011;6804;48.774;9.174;2023-04-19T11:58:23;10.60;;;7.97;;
13463;SDS011;6804;48.774;9.174;2023-04-19T12:00:56;10.30;;;9.23;;
13463;SDS011;6804;48.774;9.174;2023-04-19T12:03:31;11.37;;;9.30;;
13463;SDS011;6804;48.774;9.174;2023-04-19T12:06:09;12.80;;;10.97;;
13463;SDS011;6804;48.774;9.174;2023-04-19T12:08:42;11.53;;;10.33;;
13463;SDS011;6804;48.774;9.174;2023-04-19T12:11:11;12.67;;;9.73;;
13463;SDS011;6804;48.774;9.174;2023-04-19T12:13:40;11.60;;;10.40;;
13463;SDS011;6804;48.774;9.174;2023-04-19T12:16:12;12.43;;;10.87;;
13463;SDS011;6804;48.774;9.174;2023-04-19T12:18:53;13.53;;;11.20;;
13463;SDS011;6804;48.774;9.174;2023-04-19T12:21:29;14.20;;;11.97;;
13463;SDS011;6804;48.774;9.174;2023-04-19T12:23:58;12.67;;;10.93;;
13463;SDS011;6804;48.774;9.174;2023-04-19T12:26:28;12.43;;;11.13;;
13463;SDS011;6804;48.774;9.174;2023-04-19T12:28:57;14.47;;;10.70;;
13463;SDS011;6804;48.774;9.174;2023-04-19T12:31:25;13.13;;;11.03;;
13463;SDS011;6804;48.774;9.174;2023-04-19T12:33:53;13.57;;;11.93;;
13463;SDS011;6804;48.774;9.174;2023-04-19T12:36:21;12.00;;;10.77;;
13463;SDS011;6804;48.774;9.174;2023-04-19T12:38:54;14.20;;;10.90;;
13463;SDS011;6804;48.774;9.174;2023-04-19T12:41:25;12.90;;;10.97;;
13463;SDS011;6804;48.774;9.174;2023-04-19T12:43:53;12.60;;;11.20;;
13463;SDS011;6804;48.774;9.174;2023-04-19T12:46:26;13.83;;;11.07;;
13463;SDS011;6804;48.774;9.174;2023-04-19T12:48:54;13.23;;;11.50;;
13463;SDS011;6804;48.774;9.174;2023-04-19T12:51:28;15.40;;;11.90;;
13463;SDS011;6804;48.774;9.174;2023-04-19T12:53:57;13.57;;;12.00;;
13463;SDS011;6804;48.774;9.174;2023-04-19T12:56:29;15.83;;;13.07;;
13463;SDS011;6804;48.774;9.174;2023-04-19T12:58:58;14.03;;;11.67;;
13463;SDS011;6804;48.774;9.174;2023-04-19T13:01:25;16.93;;;13.43;;
13463;SDS011;6804;48.774;9.174;2023-04-19T13:03:56;21.30;;;13.43;;
13463;SDS011;6804;48.774;9.174;2023-04-19T13:06:24;15.77;;;12.37;;
13463;SDS011;6804;48.774;9.174;2023-04-19T13:08:55;14.57;;;12.10;;
13463;SDS011;6804;48.774;9.174;2023-04-19T13:11:25;15.80;;;12.50;;
13463;SDS011;6804;48.774;9.174;2023-04-19T13:13:56;18.30;;;12.53;;
13463;SDS011;6804;48.774;9.174;2023-04-19T13:16:29;16.23;;;12.47;;
13463;SDS011;6804;48.774;9.174;2023-04-19T13:18:57;15.77;;;12.10;;
13463;SDS011;6804;48.774;9.174;2023-04-19T13:21:28;12.90;;;10.77;;
13463;SDS011;6804;48.774;9.174;2023-04-19T13:23:58;12.83;;;9.87;;
13463;SDS011;6804;48.774;9.174;2023-04-19T13:26:26;12.30;;;10.70;;
13463;SDS011;6804;48.774;9.174;2023-04-19T13:28:54;12.63;;;10.00;;
13463;SDS011;6804;48.774;9.174;2023-04-19T13:31:22;12.63;;;9.93;;
13463;SDS011;6804;48.774;9.174;2023-04-19T13:33:50;12.93;;;9.73;;
13463;SDS011;6804;48.774;9.174;2023-04-19T13:36:18;12.37;;;9.70;;
13463;SDS011;6804;48.774;9.174;2023-04-19T13:38:49;13.33;;;10.97;;
13463;SDS011;6804;48.774;9.174;2023-04-19T13:41:21;13.23;;;9.67;;
13463;SDS011;6804;48.774;9.174;2023-04-19T13:43:51;11.03;;;9.53;;
13463;SDS011;6804;48.774;9.174;2023-04-19T13:46:19;11.20;;;8.70;;
13463;SDS011;6804;48.774;9.174;2023-04-19T13:48:46;12.13;;;9.00;;
13463;SDS011;6804;48.774;9.174;2023-04-19T13:51:17;11.20;;;8.77;;
13463;SDS011;6804;48.774;9.174;2023-04-19T13:53:45;12.60;;;9.20;;
13463;SDS011;6804;48.774;9.174;2023-04-19T13:56:13;12.40;;;9.37;;
13463;SDS011;6804;48.774;9.174;2023-04-19T13:58:48;13.23;;;9.50;;
13463;SDS011;6804;48.774;9.174;2023-04-19T14:01:18;13.73;;;8.77;;
13463;SDS011;6804;48.774;9.174;2023-04-19T14:03:46;12.97;;;8.97;;
13463;SDS011;6804;48.774;9.174;2023-04-19T14:06:14;10.67;;;9.10;;
13463;SDS011;6804;48.774;9.174;2023-04-19T14:08:45;9.70;;;8.40;;
13463;SDS011;6804;48.774;9.174;2023-04-19T14:11:13;10.93;;;8.63;;
13463;SDS011;6804;48.774;9.174;2023-04-19T14:13:42;11.87;;;8.80;;
13463;SDS011;6804;48.774;9.174;2023-04-19T14:16:11;8.77;;;7.87;;
13463;SDS011;6804;48.774;9.174;2023-04-19T14:18:42;9.93;;;8.10;;
13463;SDS011;6804;48.774;9.174;2023-04-19T14:21:10;10.70;;;8.67;;
13463;SDS011;6804;48.774;9.174;2023-04-19T14:23:37;9.80;;;8.73;;
13463;SDS011;6804;48.774;9.174;2023-04-19T14:26:12;10.77;;;7.67;;
13463;SDS011;6804;48.774;9.174;2023-04-19T14:28:40;10.30;;;8.37;;
13463;SDS011;6804;48.774;9.174;2023-04-19T14:31:10;8.47;;;7.57;;
13463;SDS011;6804;48.774;9.174;2023-04-19T14:33:41;9.17;;;7.70;;
13463;SDS011;6804;48.774;9.174;2023-04-19T14:36:13;9.43;;;8.00;;
13463;SDS011;6804;48.774;9.174;2023-04-19T14:38:41;8.60;;;7.60;;
13463;SDS011;6804;48.774;9.174;2023-04-19T14:41:09;9.90;;;7.30;;
13463;SDS011;6804;48.774;9.174;2023-04-19T14:43:40;9.40;;;7.87;;
13463;SDS011;6804;48.774;9.174;2023-04-19T14:46:08;7.97;;;7.10;;
13463;SDS011;6804;48.774;9.174;2023-04-19T14:48:38;8.77;;;7.87;;
13463;SDS011;6804;48.774;9.174;2023-04-19T14:51:09;8.97;;;7.93;;
13463;SDS011;6804;48.774;9.174;2023-04-19T14:53:37;9.83;;;7.20;;
13463;SDS011;6804;48.774;9.174;2023-04-19T14:56:06;9.00;;;8.07;;
13463;SDS011;6804;48.774;9.174;2023-04-19T14:58:36;10.50;;;8.60;;
13463;SDS011;6804;48.774;9.174;2023-04-19T15:01:11;10.60;;;7.93;;
13463;SDS011;6804;48.774;9.174;2023-04-19T15:03:40;9.20;;;7.70;;
13463;SDS011;6804;48.774;9.174;2023-04-19T15:06:11;8.90;;;7.67;;
13463;SDS011;6804;48.774;9.174;2023-04-19T15:08:41;10.87;;;8.83;;
13463;SDS011;6804;48.774;9.174;2023-04-19T15:11:12;10.47;;;8.20;;